Terminal Aerodrome Forecast
Issued by NWS Albany, NY

Home | Current Version | Previous Version | Text Only | Print | Product List | Glossary On
Versions: 1 2 3 4 5 6 7 8 9 10 11 12 13 14 15 16 17 18 19 20 21
000
FTUS41 KALY 300520
TAFPOU
TAF
KPOU 300520Z 3006/3106 15004KT P6SM VCSH BKN050 BKN100
      TEMPO 3006/3008 5SM -SHRA BR BKN040
     FM300800 15003KT 4SM -RA BR SCT005 BKN015 OVC030
      TEMPO 3008/3012 3SM -RA BR BKN005
     FM301200 22005KT 6SM -SHRA BR BKN010 BKN030 OVC050
     FM301700 22006KT P6SM VCSH SCT035 SCT150 PROB30 3019/3101 4SM
      -SHRA BR BKN035=

USA.gov is the U.S. government's official web portal to all federal, state and local government web resources and services.